Weather reports worldwide

Advertisment
Großer Arber, Germany (10791): temperature & dewpoint: 10.08.2018 18:00:00 - 16.08.2018 18:00:00 (CEST)Großer Arber, Germany (10791): wind speed & gusts: 10.08.2018 18:00:00 - 16.08.2018 18:00:00 (CEST)Großer Arber, Germany (10791): wind direction: 10.08.2018 18:00:00 - 16.08.2018 18:00:00 (CEST)Großer Arber, Germany (10791): visibility: 10.08.2018 18:00:00 - 16.08.2018 18:00:00 (CEST)Großer Arber, Germany (10791): sunshine duration: 10.08.2018 18:00:00 - 16.08.2018 18:00:00 (CEST)Großer Arber, Germany (10791): precipitation: 10.08.2018 18:00:00 - 16.08.2018 18:00:00 (CEST)
Date & Time tt [°C] td [°C] ff [km/h] ff [kn] fx [km/h] fx [kn] dd vv [km] sd [min] rr [mm]
16.08.2018 18:00:00 17,5 8,8 9 5 14 8 SSE 69 55 0,0
16.08.2018 17:00:00 18,3 8,7 10 5 17 9 SSE 70 42 0,0
16.08.2018 16:00:00 17,1 9,5 10 6 19 10 SE 75 28 0,0
16.08.2018 15:00:00 17,4 9,9 10 5 16 9 SSE 68 29 0,0
16.08.2018 14:00:00 16,4 9,0 8 4 14 8 SSE 66 9 0,0
16.08.2018 13:00:00 16,2 9,1 8 4 19 10 SE 74 19 0,0
16.08.2018 12:00:00 16,2 9,4 9 5 16 8 SSE 54 26 0,0
16.08.2018 11:00:00 13,7 8,9 11 6 14 8 S 45 0 0,0
16.08.2018 10:00:00 13,6 8,2 4 2 11 6 S 41 9 0,0
16.08.2018 09:00:00 14,1 9,4 8 4 16 8 S 48 60 0,0
16.08.2018 08:00:00 13,1 9,3 12 7 16 9 S 49 60 0,0
16.08.2018 07:00:00 12,3 8,5 15 8 18 10 S 52 21 0,0
16.08.2018 06:00:00 12,2 8,7 16 9 19 10 S 42 0 0,0
16.08.2018 05:00:00 11,9 8,8 14 8 19 11 S 35 0 0,0
16.08.2018 04:00:00 12,1 8,9 18 10 19 10 S 39 0 0,0
16.08.2018 03:00:00 11,6 8,5 11 6 13 7 SSE 35 0 0,0
16.08.2018 02:00:00 11,9 8,4 9 5 10 5 SE 42 0 0,0
16.08.2018 01:00:00 12,0 8,9 8 4 11 6 E 34 0 0,0
16.08.2018 00:00:00 12,2 9,1 8 4 15 8 ENE 34 0 0,0
15.08.2018 23:00:00 11,7 9,1 12 6 17 9 NNE 35 0 0,0
15.08.2018 22:00:00 11,7 9,1 12 7 22 12 N 40 0 0,0
15.08.2018 21:00:00 12,6 9,2 15 8 18 10 NNW 41 0 0,0
15.08.2018 20:00:00 13,5 9,2 15 8 25 14 NW 47 48 0,0
15.08.2018 19:00:00 14,7 9,1 15 8 24 13 W 52 35 0,0
15.08.2018 18:00:00 15,0 9,7 13 7 20 11 WNW 60 11 0,0
15.08.2018 17:00:00 15,7 9,0 12 6 24 13 WNW 71 35 0,0
15.08.2018 16:00:00 16,2 10,1 13 7 23 12 W 75 22 0,0
15.08.2018 15:00:00 16,1 9,6 13 7 27 15 W 35 26 0,0
15.08.2018 14:00:00 13,7 10,3 14 7 23 13 WNW 34 12 0,0
15.08.2018 13:00:00 13,4 9,8 14 7 23 12 WNW 33 11 0,0
15.08.2018 12:00:00 12,4 9,7 9 5 18 10 NW 60 10 0,0
15.08.2018 11:00:00 12,1 9,2 9 5 15 8 NNW 36 1 0,0
15.08.2018 10:00:00 11,9 8,3 9 5 16 9 W 32 18 0,0
15.08.2018 09:00:00 10,7 8,7 14 7 19 10 NNW 16 2 0,0
15.08.2018 08:00:00 10,0 9,0 16 9 21 11 N 10 34 0,0
15.08.2018 07:00:00 9,6 9,4 15 8 25 14 NNW 0,1 0 0,0
15.08.2018 06:00:00 9,6 9,4 19 11 27 14 NNW 0,1 0 0,0
15.08.2018 05:00:00 10,0 9,8 19 10 25 13 NW - 0 0,0
15.08.2018 04:00:00 10,1 10,0 18 10 28 15 NW - 0 0,0
15.08.2018 03:00:00 10,1 10,0 19 11 33 18 NW 0,1 0 0,0
15.08.2018 02:00:00 10,3 10,2 22 12 38 21 NW 0,1 0 0,0
15.08.2018 01:00:00 10,2 10,0 27 15 42 23 WNW 0,1 0 0,0
15.08.2018 00:00:00 10,2 9,5 29 15 45 24 NW 14 0 0,0
14.08.2018 23:00:00 10,2 9,1 31 17 45 25 WNW 20 0 0,0
14.08.2018 22:00:00 10,8 8,5 29 16 46 25 WNW 51 0 0,0
14.08.2018 21:00:00 11,1 8,5 26 14 42 23 W 51 0 0,0
14.08.2018 20:00:00 12,0 8,2 28 15 42 23 W 61 28 0,0
14.08.2018 19:00:00 13,4 8,6 22 12 36 19 W 64 37 0,0
14.08.2018 18:00:00 14,2 8,5 24 13 42 23 W 65 40 0,0
14.08.2018 17:00:00 12,9 8,7 26 14 38 21 W 64 26 0,0
14.08.2018 16:00:00 13,9 9,0 28 15 39 21 W 75 13 0,0
14.08.2018 15:00:00 11,1 9,4 17 9 41 22 WSW 53 11 0,0
14.08.2018 14:00:00 11,2 9,8 19 10 42 23 W 41 11 0,0
14.08.2018 13:00:00 11,5 9,0 29 16 42 23 WSW 68 19 0,0
14.08.2018 12:00:00 11,1 10,5 26 14 43 23 W 16 23 0,0
14.08.2018 11:00:00 10,8 10,5 24 13 47 25 WSW 0,2 10 0,0
14.08.2018 10:00:00 10,3 10,1 27 14 42 23 W 0,1 2 0,0
14.08.2018 09:00:00 10,4 10,4 29 16 43 23 W 0,2 1 0,0
14.08.2018 08:00:00 10,5 10,5 27 15 39 21 W 0,1 0 0,0
14.08.2018 07:00:00 10,8 10,8 27 14 45 24 W 0,1 0 0,0
14.08.2018 06:00:00 10,6 10,6 26 14 37 20 W 0,1 0 0,0
14.08.2018 05:00:00 11,3 11,3 22 12 44 24 WSW - 0 0,0
14.08.2018 04:00:00 11,3 11,3 28 15 45 24 WSW - 0 0,1
14.08.2018 03:00:00 11,3 11,3 30 16 40 21 SW - 0 0,0
14.08.2018 02:00:00 11,2 11,1 26 14 40 22 SW - 0 0,0
14.08.2018 01:00:00 11,1 11,1 26 14 44 24 SW - 0 0,0
14.08.2018 00:00:00 11,3 10,0 33 18 45 24 SSW 71 0 0,1
13.08.2018 23:00:00 11,0 10,1 25 14 48 26 SW 25 0 1,4
13.08.2018 22:00:00 10,9 10,9 41 22 61 33 WSW 0,1 0 1,4
13.08.2018 21:00:00 12,4 10,7 43 23 56 30 WSW 48 0 0,0
13.08.2018 20:00:00 14,7 9,2 35 19 50 27 WNW 68 0 0,0
13.08.2018 19:00:00 16,7 10,0 34 18 50 27 NW 55 0 0,0
13.08.2018 18:00:00 19,0 9,6 16 9 28 15 NNW 67 10 0,0
13.08.2018 17:00:00 20,6 11,1 10 6 20 11 SW 44 24 0,0
13.08.2018 16:00:00 18,3 11,7 16 9 28 15 SSW 67 21 0,1
13.08.2018 15:00:00 22,5 8,5 16 9 33 18 SW 66 60 0,0
13.08.2018 14:00:00 21,8 8,7 16 9 35 19 S 67 60 0,0
13.08.2018 13:00:00 21,7 10,6 19 10 36 19 SSW 75 59 0,0
13.08.2018 12:00:00 19,7 9,8 23 12 34 18 S 51 60 0,0
13.08.2018 11:00:00 18,8 10,0 18 10 28 15 SSW 61 60 0,0
13.08.2018 10:00:00 17,3 11,2 17 9 27 14 SSW 75 60 0,0
13.08.2018 09:00:00 16,5 11,1 20 11 28 15 SSW 63 60 0,0
13.08.2018 08:00:00 15,8 10,0 22 12 28 15 SSW 65 60 0,0
13.08.2018 07:00:00 15,2 10,0 22 12 31 17 SSW 75 33 0,0
13.08.2018 06:00:00 15,6 9,9 24 13 31 17 SSW 60 0 0,0
13.08.2018 05:00:00 15,7 8,7 22 12 30 16 SSW 75 0 0,0
13.08.2018 04:00:00 15,8 8,5 22 12 30 16 S 75 0 0,0
13.08.2018 03:00:00 15,7 8,4 24 13 26 14 SSW 70 0 0,0
13.08.2018 02:00:00 15,6 8,2 22 12 29 16 SSW 70 0 0,0
13.08.2018 01:00:00 15,4 8,0 24 13 28 15 SSW 70 0 0,0
13.08.2018 00:00:00 15,5 7,6 23 13 26 14 SW 69 0 0,0
12.08.2018 23:00:00 15,5 6,1 22 12 23 13 SW 75 0 0,0
12.08.2018 22:00:00 15,3 4,6 11 6 13 7 SW 75 0 0,0
12.08.2018 21:00:00 15,9 5,2 8 5 11 6 SSW 75 13 0,0
12.08.2018 20:00:00 16,3 4,7 9 5 14 8 SSW 75 60 0,0
12.08.2018 19:00:00 17,7 3,7 10 5 17 9 SSW 75 60 0,0
12.08.2018 18:00:00 19,1 4,9 10 5 22 12 SSW 67 60 0,0
12.08.2018 17:00:00 18,7 3,0 11 6 22 12 SSW 49 60 0,0
12.08.2018 16:00:00 18,4 5,0 11 6 22 12 SSW 75 60 0,0
12.08.2018 15:00:00 18,1 4,8 14 7 23 12 SSW 62 60 0,0
12.08.2018 14:00:00 17,6 4,3 9 5 18 10 SSW 49 60 0,0
12.08.2018 13:00:00 16,7 4,4 11 6 25 13 SSE 46 60 0,0
12.08.2018 12:00:00 15,4 3,7 12 7 24 13 SE 70 60 0,0
12.08.2018 11:00:00 14,6 4,9 13 7 25 14 SE 41 60 0,0
12.08.2018 10:00:00 13,2 3,5 15 8 23 13 S 75 60 0,0
12.08.2018 09:00:00 12,8 3,4 15 8 26 14 SSE 57 60 0,0
12.08.2018 08:00:00 11,9 3,3 16 8 22 12 SSE 60 60 0,0
12.08.2018 07:00:00 10,6 2,7 13 7 15 8 S 75 20 0,0
12.08.2018 06:00:00 10,9 2,8 11 6 14 8 SSW 75 0 0,0
12.08.2018 05:00:00 10,5 3,1 12 7 15 8 S 75 0 0,0
12.08.2018 04:00:00 10,5 3,6 9 5 10 5 S 75 0 0,0
12.08.2018 03:00:00 10,0 3,9 6 4 8 4 WSW 75 0 0,0
12.08.2018 02:00:00 10,0 3,6 7 4 12 6 N 75 0 0,0
12.08.2018 01:00:00 10,2 3,8 11 6 19 11 NW 75 0 0,0
12.08.2018 00:00:00 10,9 3,4 16 9 24 13 WNW 75 0 0,0
11.08.2018 23:00:00 10,9 3,3 20 11 26 14 W 75 0 0,0
11.08.2018 22:00:00 11,1 3,4 22 12 27 15 W 75 0 0,0
11.08.2018 21:00:00 11,0 3,9 18 10 26 14 W 75 22 0,0
11.08.2018 20:00:00 12,6 4,0 17 9 29 15 W 75 55 0,0
11.08.2018 19:00:00 13,3 4,1 19 11 37 20 W 75 45 0,0
11.08.2018 18:00:00 14,5 5,4 22 12 41 22 W 72 38 0,0
11.08.2018 17:00:00 15,0 7,2 22 12 40 21 WSW 63 31 0,0
11.08.2018 16:00:00 13,9 7,8 23 12 49 26 WSW 57 42 0,0
11.08.2018 15:00:00 13,1 8,5 25 14 44 24 WSW 46 22 0,0
11.08.2018 14:00:00 13,4 7,7 27 14 37 20 SW 53 24 0,0
11.08.2018 13:00:00 13,9 9,2 22 12 36 19 SW 56 52 0,0
11.08.2018 12:00:00 12,4 8,1 14 8 23 13 S 48 51 0,0
11.08.2018 11:00:00 12,9 5,5 15 8 24 13 SSW 75 60 0,0
11.08.2018 10:00:00 12,1 4,7 16 9 24 13 SW 65 60 0,0
11.08.2018 09:00:00 11,3 4,7 18 10 23 12 SSW 75 60 0,0
11.08.2018 08:00:00 11,0 4,7 11 6 16 8 SSW 63 60 0,0
11.08.2018 07:00:00 10,5 3,9 10 5 11 6 S 75 29 0,0
11.08.2018 06:00:00 10,7 3,9 6 4 8 4 S 75 0 0,0
11.08.2018 05:00:00 10,3 3,5 0 0 9 5 N 75 0 0,0
11.08.2018 04:00:00 10,3 3,9 8 5 11 6 E 75 0 0,0
11.08.2018 03:00:00 9,7 4,2 9 5 12 6 N 75 0 0,0
11.08.2018 02:00:00 9,9 4,2 10 6 14 8 N 75 0 0,0
11.08.2018 01:00:00 10,1 4,4 14 8 17 9 NNW 75 0 0,0
11.08.2018 00:00:00 10,0 4,5 11 6 17 9 NNW 75 0 0,0
10.08.2018 23:00:00 10,2 4,7 14 8 19 10 NNW 75 0 0,0
10.08.2018 22:00:00 10,2 4,9 15 8 19 10 NNW 75 0 0,0
10.08.2018 21:00:00 9,8 4,8 17 9 23 12 NNW 75 5 0,0
10.08.2018 20:00:00 9,2 5,7 14 7 19 10 NNW 75 0 0,0
10.08.2018 19:00:00 9,7 5,9 9 5 13 7 W 75 2 0,0
10.08.2018 18:00:00 10,3 5,8 6 4 12 7 WNW 75 7 0,0

tt = temperature
td = dewpoint
ff = wind speed
fx = gusts
dd = wind direction
vv = visibility
sd = sunshine duration
rr = precipitation

Next stations